Fritch, TX (79036)

5:01 AM CDT on August 27, 2016 (GMT -0500)
Calle Cuesta Drive | | Change Station

Elev 3218 ft 35.63 °N, 101.57 °W | Updated 35 seconds ago

Clear
Clear
63.7 °F
Feels Like 63.7 °F
N
0.6
Wind Variable Wind from West
Gusts 1.2 mph

Today
High -- | Low -- °F
--% Chance of Precip.
Yesterday
High -- | Low -- °F
Precip. -- in
Pressure 29.94 in
Visibility 10.0 miles
Clouds Clear
Dew Point 58 °F
Humidity 80%
Rainfall 0.00 in
Snow Depth Not available.
7:15 AM 8:19 PM
Waning Crescent, 26% visible
METAR KBGD 270951Z AUTO 27005KT 10SM CLR 18/14 A3006 RMK AO2 SLP139 T01830144
Pressure 29.94 in
Visibility 10.0 miles
Clouds Clear
Dew Point 58 °F
Humidity 80%
Rainfall 0.00 in
Snow Depth Not available.
7:15 AM 8:19 PM
Waning Crescent, 26% visible
METAR KBGD 270951Z AUTO 27005KT 10SM CLR 18/14 A3006 RMK AO2 SLP139 T01830144

10-Day Weather Forecast

Almanac

Astronomy

Aug. 27, 2016 Rise Set
Actual Time
Civil Twilight
Nautical Twilight
Astronomical Twilight
Moon
Length of Visible Light
Length of Day
Tomorrow will be .
, % of the Moon is Illuminated

Today's Extremes

State Highs State Lows

Community

WunderPhotos

Upload Photos

1,935,313 photos uploaded!

WunderBlog® & News

Nearby

Air Quality

  Air Quality AQ Index Pollutant
Not available.

Snow Depth

Station Depth Elevation

Earthquake Activity

City Distance Mag. Time & Date
Minimum magnitude displayed is 2.5.

Coastal Water Temperatures

Place Temperature

Stations

Nearby Weather Stations

Station Location Temp. Windchill Dew Point Humidity Wind Precip. Elev Updated Type
                   

Watches & Warnings

There are currently no watches in effect.